Time;durP1;ratioP1;P1;durP2;ratioP2;P2;SDS_P1;SDS_P2;PMS_P1;PMS_P2;Temp;Humidity;BMP_temperature;BMP_pressure;BME280_temperature;BME280_humidity;BME280_pressure;Samples;Min_cycle;Max_cycle;Signal;HPM_P1;HPM_P2
2022/12/22 03:26:18;;;;;;;174.00;16.23;;;;;;;8.32;100.00;100114.19;5028414;28;20087;-75
2022/12/22 03:28:43;;;;;;;50.30;9.40;;;;;;;8.32;100.00;100114.19;5028464;28;20037;-76
2022/12/22 03:31:09;;;;;;;172.13;14.13;;;;;;;8.33;100.00;100115.91;5026396;28;20029;-75
2022/12/22 03:33:34;;;;;;;192.32;15.32;;;;;;;8.32;100.00;100107.91;5027891;28;20041;-76
2022/12/22 03:36:00;;;;;;;197.80;15.43;;;;;;;8.30;100.00;100102.63;5037446;28;20040;-76
2022/12/22 03:38:25;;;;;;;239.05;16.35;;;;;;;8.23;100.00;100098.63;5042047;28;20347;-76
2022/12/22 03:40:51;;;;;;;240.20;18.30;;;;;;;8.26;100.00;100103.84;5028229;28;20045;-76
2022/12/22 03:48:43;;;;;;;101.22;8.65;;;;;;;8.26;100.00;100086.72;5031805;28;20147;-75
2022/12/22 03:51:08;;;;;;;147.48;14.70;;;;;;;8.26;100.00;100094.84;5046730;28;20040;-75
2022/12/22 03:53:34;;;;;;;144.23;12.70;;;;;;;8.24;100.00;100083.22;5032343;28;20080;-76
2022/12/22 03:56:00;;;;;;;72.22;9.00;;;;;;;8.26;100.00;100086.72;5028561;28;20556;-76
2022/12/22 03:58:25;;;;;;;25.60;6.00;;;;;;;8.21;100.00;100092.47;5040353;28;20400;-76
2022/12/22 04:00:50;;;;;;;86.60;8.60;;;;;;;8.19;100.00;100087.16;5045824;28;20103;-76
2022/12/22 04:03:16;;;;;;;44.75;8.38;;;;;;;8.19;100.00;100078.16;5037933;28;20037;-76
2022/12/22 04:05:42;;;;;;;45.05;9.10;;;;;;;8.18;100.00;100084.56;5033593;28;20556;-76
2022/12/22 04:08:07;;;;;;;94.70;8.27;;;;;;;8.14;100.00;100078.50;5046010;28;20143;-76
2022/12/22 04:13:16;;;;;;;38.42;7.60;;;;;;;8.17;100.00;100070.16;5035530;28;20044;-75
2022/12/22 04:15:42;;;;;;;88.80;9.25;;;;;;;8.17;100.00;100077.41;5026979;28;20432;-75
2022/12/22 04:18:08;;;;;;;26.23;7.32;;;;;;;8.17;100.00;100074.72;5026025;28;20052;-75
2022/12/22 04:20:33;;;;;;;28.42;7.70;;;;;;;8.16;100.00;100071.16;5026604;28;20037;-76
2022/12/22 04:22:59;;;;;;;20.63;6.10;;;;;;;8.14;100.00;100066.81;5026405;28;20037;-76
2022/12/22 04:25:25;;;;;;;17.02;5.95;;;;;;;8.10;100.00;100068.00;5025158;28;20095;-76
2022/12/22 04:27:50;;;;;;;18.25;5.93;;;;;;;8.10;100.00;100074.28;5027497;28;20175;-75
2022/12/22 04:30:16;;;;;;;19.48;6.53;;;;;;;8.08;100.00;100070.84;5025977;28;20039;-75
2022/12/22 04:32:41;;;;;;;13.65;6.55;;;;;;;8.10;100.00;100082.41;5026953;28;20084;-76
2022/12/22 04:35:08;;;;;;;49.47;7.57;;;;;;;8.09;100.00;100086.09;5028878;28;20033;-76
2022/12/22 04:37:33;;;;;;;26.60;6.07;;;;;;;8.09;100.00;100085.25;5045029;28;20499;-76
2022/12/22 04:39:59;;;;;;;38.67;6.60;;;;;;;8.08;100.00;100092.50;5047798;28;20031;-75
2022/12/22 04:42:24;;;;;;;7.55;5.68;;;;;;;8.10;100.00;100095.09;5029552;28;20033;-75
2022/12/22 04:44:50;;;;;;;23.58;5.20;;;;;;;8.09;100.00;100096.09;5026982;28;20687;-75
2022/12/22 04:47:16;;;;;;;8.73;4.90;;;;;;;8.06;100.00;100089.03;5037529;28;20043;-75
2022/12/22 04:49:41;;;;;;;32.85;5.78;;;;;;;8.08;100.00;100092.50;5024735;28;20036;-76
2022/12/22 04:52:07;;;;;;;68.75;6.57;;;;;;;8.08;100.00;100091.66;5026278;28;20044;-76
2022/12/22 04:54:32;;;;;;;45.25;6.40;;;;;;;8.05;100.00;100081.91;5027114;28;20121;-76
2022/12/22 04:56:58;;;;;;;36.88;6.28;;;;;;;8.03;100.00;100083.88;5027597;28;20045;-76
2022/12/22 04:59:23;;;;;;;35.33;6.85;;;;;;;8.01;100.00;100074.97;5035752;28;20020;-75
2022/12/22 05:01:48;;;;;;;33.05;7.90;;;;;;;8.03;100.00;100080.28;5026572;28;20041;-75
2022/12/22 05:04:14;;;;;;;24.77;7.25;;;;;;;8.02;100.00;100073.13;5026072;28;20037;-75
2022/12/22 05:06:39;;;;;;;26.05;8.32;;;;;;;8.04;100.00;100079.31;5041335;28;20028;-75
2022/12/22 05:09:04;;;;;;;147.00;12.60;;;;;;;8.03;100.00;100081.16;5033952;28;20029;-75
2022/12/22 05:11:30;;;;;;;130.63;12.40;;;;;;;7.97;100.00;100081.59;5024758;28;20040;-75
2022/12/22 05:13:55;;;;;;;61.25;7.60;;;;;;;7.93;100.00;100086.41;5027576;28;20038;-75
2022/12/22 05:16:21;;;;;;;142.40;11.95;;;;;;;7.92;100.00;100076.50;5025011;28;20065;-76
2022/12/22 05:18:46;;;;;;;41.00;6.97;;;;;;;7.90;100.00;100093.88;5026221;28;20029;-75
2022/12/22 05:21:15;;;;;;;36.17;6.70;;;;;;;7.85;100.00;100096.06;5040662;28;20045;-75
2022/12/22 05:23:42;;;;;;;38.78;7.72;;;;;;;7.84;100.00;100094.34;5026493;28;20117;-76
2022/12/22 05:26:09;;;;;;;13.88;5.22;;;;;;;7.82;100.00;100098.97;5025397;28;20030;-76
2022/12/22 05:28:35;;;;;;;23.58;5.85;;;;;;;7.80;100.00;100098.25;5039804;28;20388;-76
2022/12/22 05:31:06;;;;;;;48.83;6.72;;;;;;;7.76;100.00;100103.00;5026268;28;20029;-76
2022/12/22 05:33:31;;;;;;;39.10;6.00;;;;;;;7.75;100.00;100103.97;5026279;28;20095;-76
2022/12/22 05:35:56;;;;;;;38.67;7.20;;;;;;;7.72;100.00;100096.06;5035165;28;20492;-76
2022/12/22 05:38:22;;;;;;;8.85;5.97;;;;;;;7.78;100.00;100106.44;5048626;28;20091;-76
2022/12/22 05:40:47;;;;;;;35.53;7.40;;;;;;;7.82;100.00;100110.66;5050507;28;20033;-75
2022/12/22 05:43:13;;;;;;;66.57;8.82;;;;;;;7.83;100.00;100114.25;5044446;28;20511;-76
2022/12/22 05:45:38;;;;;;;58.58;9.70;;;;;;;7.82;100.00;100104.38;5030303;28;20610;-76
2022/12/22 05:48:04;;;;;;;88.28;11.02;;;;;;;7.84;100.00;100121.41;5013880;28;20025;-76
2022/12/22 05:50:31;;;;;;;118.32;10.93;;;;;;;7.86;100.00;100117.59;5049360;28;20033;-76
2022/12/22 05:52:58;;;;;;;41.65;8.23;;;;;;;7.86;100.00;100120.31;5050527;28;20342;-76
2022/12/22 05:55:23;;;;;;;87.53;9.93;;;;;;;7.86;100.00;100122.16;5036187;28;20036;-76
2022/12/22 05:57:48;;;;;;;31.48;9.10;;;;;;;7.87;100.00;100135.56;5034254;28;20103;-76
2022/12/22 06:00:15;;;;;;;41.70;8.95;;;;;;;7.91;100.00;100138.94;5044801;28;20121;-75
2022/12/22 06:02:41;;;;;;;19.02;9.43;;;;;;;7.93;100.00;100148.69;5039351;28;20132;-76
2022/12/22 06:05:08;;;;;;;26.40;9.07;;;;;;;7.95;100.00;100162.09;5030407;28;20040;-75
2022/12/22 06:07:34;;;;;;;18.48;9.27;;;;;;;7.95;100.00;100153.97;5044170;28;20032;-75
2022/12/22 06:09:59;;;;;;;17.02;9.13;;;;;;;7.99;100.00;100149.22;5026055;28;20043;-76
2022/12/22 06:12:24;;;;;;;20.85;10.07;;;;;;;8.00;100.00;100151.81;5042678;28;20121;-76
2022/12/22 06:14:50;;;;;;;18.63;9.18;;;;;;;8.09;100.00;100171.94;5037506;28;20156;-76
2022/12/22 06:17:15;;;;;;;21.85;10.93;;;;;;;8.12;100.00;100167.16;5041267;28;20048;-76
2022/12/22 06:19:41;;;;;;;22.52;11.30;;;;;;;8.14;100.00;100176.03;5063146;28;20069;-76
2022/12/22 06:22:06;;;;;;;30.23;13.18;;;;;;;8.18;100.00;100180.25;5042991;28;20439;-76
2022/12/22 06:24:31;;;;;;;29.08;12.73;;;;;;;8.20;100.00;100182.84;5044299;28;20429;-76
2022/12/22 06:26:57;;;;;;;27.90;13.23;;;;;;;8.25;100.00;100179.78;5043133;28;20041;-75
2022/12/22 06:29:22;;;;;;;31.77;13.57;;;;;;;8.27;100.00;100189.56;5037523;28;20029;-76
2022/12/22 06:31:48;;;;;;;33.03;13.63;;;;;;;8.31;100.00;100192.91;5042505;28;20039;-76
2022/12/22 06:34:16;;;;;;;33.60;13.98;;;;;;;8.31;100.00;100190.22;5033091;28;20116;-76
2022/12/22 06:36:45;;;;;;;37.65;15.27;;;;;;;8.33;100.00;100199.06;5037761;28;20051;-76
2022/12/22 06:39:11;;;;;;;35.15;15.35;;;;;;;8.33;100.00;100210.78;5029271;28;20033;-76
2022/12/22 06:44:20;;;;;;;39.17;16.23;;;;;;;8.34;100.00;100215.22;5048783;28;20482;-76
2022/12/22 06:46:46;;;;;;;37.05;16.27;;;;;;;8.35;100.00;100213.41;5040578;28;20105;-76
2022/12/22 06:49:11;;;;;;;46.90;16.90;;;;;;;8.34;100.00;100212.50;5026218;28;20076;-76
2022/12/22 06:51:37;;;;;;;39.65;17.30;;;;;;;8.33;100.00;100207.19;5027015;28;20030;-76
2022/12/22 06:54:02;;;;;;;41.35;16.33;;;;;;;8.35;100.00;100226.94;5028871;28;20446;-76
2022/12/22 06:56:27;;;;;;;42.95;16.95;;;;;;;8.34;100.00;100228.75;5041216;28;20195;-76
2022/12/22 06:58:53;;;;;;;44.63;17.92;;;;;;;8.35;100.00;100240.50;5042124;28;20028;-76
2022/12/22 07:01:19;;;;;;;44.83;16.65;;;;;;;8.35;100.00;100241.38;5044991;28;20059;-76
2022/12/22 07:03:44;;;;;;;42.90;16.02;;;;;;;8.36;100.00;100248.53;5028659;28;20037;-77
2022/12/22 07:06:10;;;;;;;40.08;16.92;;;;;;;8.34;100.00;100247.72;5038926;28;20029;-75
2022/12/22 07:08:36;;;;;;;41.00;16.60;;;;;;;8.32;100.00;100255.13;5047820;28;20047;-75
2022/12/22 07:11:01;;;;;;;41.40;16.00;;;;;;;8.30;100.00;100257.09;5031945;28;20025;-75
2022/12/22 07:13:32;;;;;;;37.22;16.02;;;;;;;8.30;100.00;100272.47;5040835;28;20526;-75
2022/12/22 07:16:00;;;;;;;40.65;16.75;;;;;;;8.29;100.00;100270.72;5048236;28;20043;-75
2022/12/22 07:18:25;;;;;;;44.78;17.35;;;;;;;8.27;100.00;100278.97;5028340;28;20026;-75
2022/12/22 07:20:51;;;;;;;42.75;17.33;;;;;;;8.26;100.00;100276.41;5027170;28;20396;-75
2022/12/22 07:23:16;;;;;;;42.45;16.20;;;;;;;8.24;100.00;100272.91;5028664;28;20040;-76
2022/12/22 07:25:41;;;;;;;39.30;15.95;;;;;;;8.21;100.00;100265.88;5032531;28;20468;-76
2022/12/22 07:28:07;;;;;;;41.60;15.88;;;;;;;8.14;100.00;100268.16;5038238;28;20478;-76
2022/12/22 07:30:35;;;;;;;37.97;14.32;;;;;;;8.09;100.00;100272.16;5028240;28;20508;-76
2022/12/22 07:33:00;;;;;;;33.92;14.93;;;;;;;8.02;100.00;100273.56;5039761;28;20112;-75
2022/12/22 07:35:26;;;;;;;39.70;15.40;;;;;;;7.97;100.00;100270.31;5032142;28;20539;-75
2022/12/22 07:37:51;;;;;;;33.85;14.48;;;;;;;7.93;100.00;100281.41;5042049;28;20519;-75
2022/12/22 07:40:16;;;;;;;34.78;15.82;;;;;;;7.93;100.00;100283.25;5026553;28;20543;-76
2022/12/22 07:42:45;;;;;;;41.00;16.15;;;;;;;7.93;100.00;100292.22;5040619;28;20029;-76
2022/12/22 07:45:15;;;;;;;41.83;15.40;;;;;;;7.95;100.00;100300.25;5026691;28;20041;-76
2022/12/22 07:47:41;;;;;;;41.75;17.38;;;;;;;7.95;100.00;100305.66;5029047;28;20038;-75
2022/12/22 07:50:31;;;;;;;48.05;18.73;;;;;;;8.00;100.00;100313.47;5046217;28;20119;-76
2022/12/22 07:52:59;;;;;;;50.50;19.30;;;;;;;8.01;100.00;100312.47;5047459;28;20044;-75
2022/12/22 07:55:27;;;;;;;47.20;17.48;;;;;;;8.00;100.00;100322.44;5046724;28;20104;-75
2022/12/22 07:57:53;;;;;;;42.10;16.98;;;;;;;8.00;100.00;100336.00;5037470;28;20374;-75
2022/12/22 08:00:19;;;;;;;55.30;19.20;;;;;;;7.99;100.00;100334.25;5026274;28;20037;-76
2022/12/22 08:02:52;;;;;;;55.03;18.52;;;;;;;8.02;100.00;100350.31;5027338;28;20037;-75
2022/12/22 08:05:18;;;;;;;53.03;19.48;;;;;;;8.03;100.00;100359.31;5030497;28;20041;-76
2022/12/22 08:07:44;;;;;;;47.28;19.08;;;;;;;8.01;100.00;100362.09;5045786;28;20041;-76
2022/12/22 08:10:10;;;;;;;50.58;18.55;;;;;;;8.01;100.00;100378.34;5027926;28;20342;-76
2022/12/22 08:12:36;;;;;;;52.35;20.33;;;;;;;8.02;100.00;100374.69;5032322;28;20036;-76
2022/12/22 08:15:02;;;;;;;47.25;17.95;;;;;;;8.03;100.00;100376.41;5047222;28;20502;-75
2022/12/22 08:17:27;;;;;;;45.35;18.48;;;;;;;8.02;100.00;100376.50;5016816;28;20084;-76
2022/12/22 08:19:56;;;;;;;47.25;18.33;;;;;;;8.01;100.00;100383.78;5026789;28;20111;-76
2022/12/22 08:22:22;;;;;;;58.17;20.25;;;;;;;8.04;100.00;100380.84;5025809;28;20045;-75
2022/12/22 08:24:52;;;;;;;45.17;17.88;;;;;;;8.06;100.00;100380.75;5027639;28;20031;-76
2022/12/22 08:27:23;;;;;;;50.80;18.70;;;;;;;8.08;100.00;100386.94;5009821;28;20067;-76
2022/12/22 08:29:54;;;;;;;49.65;20.33;;;;;;;8.10;100.00;100393.09;5027517;28;20037;-76
2022/12/22 08:32:20;;;;;;;50.22;19.33;;;;;;;8.08;100.00;100386.94;5037365;28;20107;-76
2022/12/22 08:34:49;;;;;;;50.40;18.80;;;;;;;8.09;100.00;100403.06;5027630;28;20036;-76
2022/12/22 08:37:17;;;;;;;50.95;17.25;;;;;;;8.06;100.00;100413.25;5046075;28;20033;-76
2022/12/22 08:39:47;;;;;;;49.42;19.02;;;;;;;8.07;100.00;100415.88;5039400;28;20493;-76
2022/12/22 08:42:16;;;;;;;41.05;16.92;;;;;;;8.05;100.00;100430.47;5060277;28;20119;-76
2022/12/22 08:44:41;;;;;;;41.55;17.02;;;;;;;8.04;100.00;100440.47;5047086;28;20033;-77
2022/12/22 08:47:07;;;;;;;43.58;17.58;;;;;;;8.05;100.00;100444.03;5035739;28;20437;-76
2022/12/22 08:49:32;;;;;;;46.22;18.50;;;;;;;8.04;100.00;100447.72;5025927;28;20420;-76
2022/12/22 08:51:58;;;;;;;42.55;17.17;;;;;;;8.03;100.00;100462.25;5026826;28;20420;-76
2022/12/22 08:54:23;;;;;;;49.40;17.77;;;;;;;8.01;100.00;100478.59;5026783;28;20359;-76
2022/12/22 08:56:49;;;;;;;54.63;18.58;;;;;;;8.01;100.00;100477.72;5026975;28;20424;-76
2022/12/22 08:59:15;;;;;;;48.63;18.35;;;;;;;7.99;100.00;100474.25;5031199;28;20028;-76
2022/12/22 09:01:43;;;;;;;44.70;16.50;;;;;;;7.97;100.00;100473.47;5026007;28;20482;-76
2022/12/22 09:04:09;;;;;;;44.70;17.17;;;;;;;7.93;100.00;100475.53;5025817;28;20033;-76
2022/12/22 09:06:34;;;;;;;41.25;15.40;;;;;;;7.90;100.00;100476.59;5040703;28;20103;-76
2022/12/22 09:09:01;;;;;;;53.60;17.52;;;;;;;7.84;100.00;100482.44;5046892;28;20040;-76
2022/12/22 09:11:28;;;;;;;48.30;18.38;;;;;;;7.85;100.00;100492.31;5035255;28;20377;-76
2022/12/22 09:13:56;;;;;;;47.17;17.35;;;;;;;7.83;100.00;100485.22;5030504;28;20037;-76
2022/12/22 09:16:22;;;;;;;47.28;17.63;;;;;;;7.79;100.00;100483.72;5030153;28;20100;-76
2022/12/22 09:18:48;;;;;;;41.40;18.00;;;;;;;7.73;100.00;100484.13;5029146;28;20055;-76
2022/12/22 09:21:14;;;;;;;44.53;17.08;;;;;;;7.67;100.00;100490.81;5029608;28;20041;-76
2022/12/22 09:23:40;;;;;;;42.38;17.02;;;;;;;7.61;100.00;100486.69;5029392;28;20540;-76
2022/12/22 09:26:11;;;;;;;46.50;17.75;;;;;;;7.56;100.00;100494.22;5030609;28;20113;-76
2022/12/22 09:28:36;;;;;;;45.33;18.58;;;;;;;7.52;100.00;100499.94;5029449;28;20037;-76
2022/12/22 09:31:03;;;;;;;46.53;17.63;;;;;;;7.51;100.00;100511.75;5030578;28;20415;-76
2022/12/22 09:33:29;;;;;;;43.58;17.58;;;;;;;7.48;100.00;100512.81;5042404;28;20040;-76
2022/12/22 09:35:54;;;;;;;53.85;18.75;;;;;;;7.51;100.00;100517.16;5038296;28;20477;-76
2022/12/22 09:38:35;;;;;;;56.53;17.95;;;;;;;7.53;100.00;100526.03;5049190;28;20090;-76
2022/12/22 09:41:40;;;;;;;47.25;17.67;;;;;;;7.57;100.00;100520.31;5043705;28;20037;-76
2022/12/22 09:44:20;;;;;;;44.13;17.00;;;;;;;7.59;100.00;100520.22;5025109;28;20136;-76
2022/12/22 09:46:45;;;;;;;47.15;17.55;;;;;;;7.57;100.00;100520.31;5030214;28;20040;-76
2022/12/22 09:49:17;;;;;;;50.55;19.08;;;;;;;7.60;100.00;100521.94;5029210;28;20041;-76
2022/12/22 09:51:49;;;;;;;53.20;19.40;;;;;;;7.59;100.00;100523.78;5029537;28;20082;-76
2022/12/22 09:54:15;;;;;;;45.95;19.77;;;;;;;7.55;100.00;100524.09;5028765;28;20295;-76
2022/12/22 09:56:41;;;;;;;50.45;19.13;;;;;;;7.51;100.00;100522.59;5030349;28;20029;-75
2022/12/22 09:59:11;;;;;;;46.05;19.63;;;;;;;7.47;100.00;100526.44;5028287;28;20044;-76
2022/12/22 10:01:58;;;;;;;45.90;18.55;;;;;;;7.48;100.00;100542.59;5029473;28;20038;-76
2022/12/22 10:04:56;;;;;;;53.60;19.48;;;;;;;7.52;100.00;100548.66;5027778;28;20073;-76
2022/12/22 10:07:34;;;;;;;49.80;19.85;;;;;;;7.57;100.00;100546.53;5031768;28;20568;-76
2022/12/22 10:10:07;;;;;;;47.83;20.23;;;;;;;7.65;100.00;100547.78;5030305;28;20405;-75
2022/12/22 10:12:32;;;;;;;51.03;20.92;;;;;;;7.67;100.00;100556.66;5030052;28;20033;-76
2022/12/22 10:14:58;;;;;;;49.38;19.52;;;;;;;7.70;100.00;100554.72;5030465;28;20021;-76
2022/12/22 10:17:30;;;;;;;52.00;20.48;;;;;;;7.71;100.00;100551.91;5039846;28;20068;-75
2022/12/22 10:20:21;;;;;;;51.67;22.40;;;;;;;7.74;100.00;100554.44;5030197;28;20052;-76
2022/12/22 10:23:14;;;;;;;44.92;19.27;;;;;;;7.78;100.00;100560.50;5027910;28;20081;-76
2022/12/22 10:25:58;;;;;;;38.63;17.50;;;;;;;7.78;100.00;100555.06;5024178;28;20057;-76
2022/12/22 10:28:33;;;;;;;39.47;17.38;;;;;;;7.83;100.00;100556.53;5031373;28;20083;-75
2022/12/22 10:31:20;;;;;;;39.70;16.58;;;;;;;7.94;100.00;100558.53;5030186;28;20120;-76
2022/12/22 10:33:48;;;;;;;37.35;15.55;;;;;;;7.95;100.00;100568.38;5037612;28;20126;-75
2022/12/22 10:36:19;;;;;;;33.35;14.30;;;;;;;7.98;100.00;100565.50;5048320;28;20485;-75
2022/12/22 10:38:55;;;;;;;36.65;14.10;;;;;;;8.01;100.00;100561.69;5029970;28;20041;-76
2022/12/22 10:41:24;;;;;;;38.75;14.35;;;;;;;8.06;100.00;100568.53;5029502;28;20041;-76
2022/12/22 10:43:50;;;;;;;30.73;12.02;;;;;;;8.03;100.00;100567.91;5029399;28;20483;-76
2022/12/22 10:46:17;;;;;;;27.23;11.85;;;;;;;8.02;100.00;100566.13;5028989;28;20389;-76
2022/12/22 10:48:42;;;;;;;28.73;11.23;;;;;;;8.05;100.00;100563.22;5037211;28;20377;-76
2022/12/22 10:51:11;;;;;;;27.95;11.30;;;;;;;8.04;100.00;100575.03;5048260;28;20031;-75
2022/12/22 10:53:53;;;;;;;34.17;12.27;;;;;;;8.01;100.00;100573.38;5039361;28;20039;-76
2022/12/22 10:56:20;;;;;;;23.85;11.50;;;;;;;7.98;100.00;100575.47;5028882;28;20111;-76
2022/12/22 10:58:52;;;;;;;33.55;14.05;;;;;;;8.02;100.00;100579.69;5028547;28;20116;-76
2022/12/22 11:01:30;;;;;;;31.98;12.23;;;;;;;8.09;100.00;100576.47;5028368;28;20040;-75
2022/12/22 11:03:56;;;;;;;30.85;12.50;;;;;;;8.16;100.00;100566.97;5028466;28;20481;-75
2022/12/22 11:06:22;;;;;;;33.00;14.07;;;;;;;8.19;100.00;100574.00;5038886;28;20040;-76
2022/12/22 11:08:48;;;;;;;30.63;11.88;;;;;;;8.22;100.00;100575.66;5048581;28;20575;-76
2022/12/22 11:11:26;;;;;;;26.90;11.73;;;;;;;8.24;100.00;100580.00;5047655;28;20043;-76
2022/12/22 11:14:18;;;;;;;26.40;11.88;;;;;;;8.30;100.00;100582.31;5033092;28;20142;-76
2022/12/22 11:16:58;;;;;;;26.17;11.50;;;;;;;8.27;100.00;100595.19;5026746;28;20146;-76
2022/12/22 11:19:49;;;;;;;25.85;10.82;;;;;;;8.22;100.00;100589.22;5027579;28;20461;-75
2022/12/22 11:22:36;;;;;;;29.98;11.32;;;;;;;8.17;100.00;100589.53;5027946;28;20056;-75
2022/12/22 11:25:41;;;;;;;30.08;12.43;;;;;;;8.10;100.00;100585.47;5028448;28;20077;-76
2022/12/22 11:28:29;;;;;;;33.50;12.63;;;;;;;8.07;100.00;100589.25;5032233;28;20485;-75
2022/12/22 11:31:14;;;;;;;34.13;14.40;;;;;;;7.99;100.00;100591.59;5027106;28;20036;-76
2022/12/22 11:34:06;;;;;;;35.90;14.57;;;;;;;8.02;100.00;100599.53;5028490;28;20473;-76
2022/12/22 11:36:39;;;;;;;38.33;15.25;;;;;;;8.03;100.00;100608.53;5040426;28;20115;-76
2022/12/22 11:39:19;;;;;;;44.67;17.85;;;;;;;8.08;100.00;100615.38;5048441;28;20044;-76
2022/12/22 11:42:15;;;;;;;40.13;17.52;;;;;;;8.19;100.00;100598.41;5036749;28;20112;-76
2022/12/22 11:45:03;;;;;;;37.78;17.92;;;;;;;8.24;100.00;100601.66;5028463;28;20129;-75
2022/12/22 11:48:18;;;;;;;48.80;18.35;;;;;;;8.27;100.00;100596.06;5034984;28;20033;-76
2022/12/22 11:50:52;;;;;;;41.20;18.88;;;;;;;8.34;100.00;100610.06;4984991;28;20049;-77
2022/12/22 11:53:37;;;;;;;47.38;20.60;;;;;;;8.37;100.00;100605.34;5017982;28;20041;-76
2022/12/22 11:56:19;;;;;;;39.85;18.05;;;;;;;8.43;100.00;100609.47;5047378;28;20049;-76
2022/12/22 11:58:47;;;;;;;37.53;18.35;;;;;;;8.48;100.00;100606.44;5032907;28;20080;-76
2022/12/22 12:01:49;;;;;;;35.03;17.02;;;;;;;8.50;100.00;100599.09;5027278;28;20106;-77
2022/12/22 12:04:33;;;;;;;31.80;15.00;;;;;;;8.49;100.00;100600.94;5025595;28;20049;-77
2022/12/22 12:07:33;;;;;;;30.73;14.45;;;;;;;8.46;100.00;100602.97;5045256;28;20037;-76
2022/12/22 12:10:05;;;;;;;32.28;16.00;;;;;;;8.43;100.00;100591.34;5048373;28;20166;-76
2022/12/22 12:12:53;;;;;;;34.85;15.82;;;;;;;8.43;100.00;100594.06;5038543;28;20025;-75
2022/12/22 12:15:30;;;;;;;38.75;15.55;;;;;;;8.44;100.00;100584.13;5003062;28;20127;-76
2022/12/22 12:18:21;;;;;;;34.03;16.17;;;;;;;8.44;100.00;100586.84;5028592;28;20138;-77
2022/12/22 12:20:56;;;;;;;35.42;16.08;;;;;;;8.47;100.00;100578.47;5045910;28;20036;-76
2022/12/22 12:23:50;;;;;;;32.65;15.68;;;;;;;8.50;100.00;100578.28;5045934;28;20255;-76
2022/12/22 12:26:24;;;;;;;33.72;16.98;;;;;;;8.49;100.00;100571.13;5038231;28;20499;-76
2022/12/22 12:29:16;;;;;;;34.38;16.20;;;;;;;8.55;100.00;100564.41;5027583;28;20729;-76
2022/12/22 12:31:51;;;;;;;33.88;15.57;;;;;;;8.52;100.00;100554.63;5026113;28;20033;-77
2022/12/22 12:34:18;;;;;;;33.03;15.38;;;;;;;8.51;100.00;100552.03;5025075;28;20503;-76
2022/12/22 12:36:59;;;;;;;33.22;14.80;;;;;;;8.51;100.00;100558.31;5040778;28;20459;-76
2022/12/22 12:39:45;;;;;;;31.33;13.98;;;;;;;8.54;100.00;100549.97;5046990;28;20404;-76
2022/12/22 12:42:32;;;;;;;28.15;13.43;;;;;;;8.56;100.00;100552.56;5041330;28;20448;-76
2022/12/22 12:45:01;;;;;;;30.38;12.95;;;;;;;8.54;100.00;100549.97;5036336;28;20083;-76
2022/12/22 12:47:34;;;;;;;27.17;13.75;;;;;;;8.55;100.00;100549.00;5035026;28;20131;-76
2022/12/22 12:50:32;;;;;;;28.55;12.95;;;;;;;8.61;100.00;100551.28;5026550;28;20033;-76
2022/12/22 12:53:09;;;;;;;28.73;13.88;;;;;;;8.60;100.00;100545.97;5027241;28;20092;-76
2022/12/22 12:55:37;;;;;;;25.42;12.95;;;;;;;8.58;100.00;100551.50;5025486;28;20049;-76
2022/12/22 12:58:04;;;;;;;29.55;13.15;;;;;;;8.58;100.00;100550.63;5029224;28;20087;-76
2022/12/22 13:00:33;;;;;;;26.15;13.27;;;;;;;8.59;100.00;100547.81;5029010;28;20075;-76
2022/12/22 13:03:31;;;;;;;28.80;13.40;;;;;;;8.60;100.00;100543.25;5031918;28;20064;-77
2022/12/22 13:05:59;;;;;;;30.30;13.65;;;;;;;8.60;100.00;100551.41;5017727;28;20143;-76
2022/12/22 13:08:31;;;;;;;28.67;13.77;;;;;;;8.61;100.00;100545.00;5042100;28;20017;-76
2022/12/22 13:10:57;;;;;;;27.38;12.93;;;;;;;8.65;100.00;100546.53;5026632;28;20090;-76
2022/12/22 13:13:22;;;;;;;25.05;13.15;;;;;;;8.69;100.00;100551.63;5027004;28;20128;-76
2022/12/22 13:15:59;;;;;;;26.83;13.15;;;;;;;8.78;100.00;100544.69;5026463;28;20528;-77
2022/12/22 13:18:44;;;;;;;28.70;14.05;;;;;;;8.78;100.00;100528.44;5025104;28;20488;-76
2022/12/22 13:21:24;;;;;;;29.13;13.50;;;;;;;8.76;100.00;100540.34;5025568;28;20041;-76
2022/12/22 13:24:08;;;;;;;33.67;13.93;;;;;;;8.72;100.00;100541.53;5025592;28;20045;-77
2022/12/22 13:26:36;;;;;;;25.10;12.55;;;;;;;8.64;100.00;100536.66;5026779;28;20038;-76
2022/12/22 13:29:16;;;;;;;24.13;12.85;;;;;;;8.62;100.00;100544.00;5026900;28;20124;-76
2022/12/22 13:31:44;;;;;;;31.25;14.80;;;;;;;8.58;100.00;100543.38;5030088;28;20121;-76
2022/12/22 13:34:33;;;;;;;28.52;13.68;;;;;;;8.58;100.00;100545.19;5032024;28;20489;-76
2022/12/22 13:37:14;;;;;;;28.00;13.73;;;;;;;8.54;100.00;100543.69;5044219;28;20071;-76
2022/12/22 13:39:39;;;;;;;30.23;13.90;;;;;;;8.52;100.00;100541.06;5029350;28;20033;-77
2022/12/22 13:42:06;;;;;;;22.83;13.60;;;;;;;8.52;100.00;100532.06;5025647;28;20038;-76
2022/12/22 13:44:33;;;;;;;22.15;11.88;;;;;;;8.48;100.00;100528.69;5025065;28;20041;-76
2022/12/22 13:47:11;;;;;;;23.67;11.25;;;;;;;8.46;100.00;100522.53;5027044;28;20120;-76
2022/12/22 13:49:39;;;;;;;23.13;11.45;;;;;;;8.44;100.00;100521.78;5025712;28;20131;-76
2022/12/22 13:52:05;;;;;;;22.80;11.77;;;;;;;8.45;100.00;100523.50;5026156;28;20063;-77
2022/12/22 13:54:36;;;;;;;23.35;11.23;;;;;;;8.41;100.00;100517.41;5036425;28;20036;-76
2022/12/22 13:57:10;;;;;;;17.25;9.93;;;;;;;8.43;100.00;100517.31;5044010;28;20561;-76
2022/12/22 13:59:41;;;;;;;16.85;9.45;;;;;;;8.43;100.00;100511.88;5029571;28;20042;-76
2022/12/22 14:02:10;;;;;;;20.40;10.52;;;;;;;8.41;100.00;100516.56;5030013;28;20053;-76
2022/12/22 14:04:37;;;;;;;17.50;8.77;;;;;;;8.38;100.00;100506.78;5029210;28;20040;-77
2022/12/22 14:07:19;;;;;;;16.42;9.30;;;;;;;8.37;100.00;100510.47;5047704;28;20485;-77
2022/12/22 14:09:47;;;;;;;17.65;9.85;;;;;;;8.32;100.00;100504.47;5048166;28;20576;-76
2022/12/22 14:12:21;;;;;;;20.50;9.75;;;;;;;8.31;100.00;100505.44;5013453;28;20477;-76
2022/12/22 14:14:49;;;;;;;18.10;10.55;;;;;;;8.27;100.00;100500.34;5029691;28;20041;-76
2022/12/22 14:17:23;;;;;;;19.83;9.43;;;;;;;8.24;100.00;100493.28;5029124;28;20053;-76
2022/12/22 14:19:55;;;;;;;19.38;10.23;;;;;;;8.23;100.00;100504.22;5028725;28;20041;-76
2022/12/22 14:22:35;;;;;;;15.18;9.40;;;;;;;8.18;100.00;100488.28;5027298;28;20558;-77
2022/12/22 14:25:32;;;;;;;19.13;9.57;;;;;;;8.17;100.00;100486.56;5030215;28;20112;-76
2022/12/22 14:27:58;;;;;;;16.50;9.35;;;;;;;8.15;100.00;100483.06;5029350;28;20464;-76
2022/12/22 14:30:29;;;;;;;16.73;9.65;;;;;;;8.13;100.00;100480.47;5039895;28;20067;-77
2022/12/22 14:32:56;;;;;;;19.23;10.05;;;;;;;8.08;100.00;100465.50;5045089;28;20176;-77
2022/12/22 14:35:21;;;;;;;18.70;9.73;;;;;;;8.07;100.00;100469.19;5065342;28;20036;-77
2022/12/22 14:37:54;;;;;;;20.20;10.95;;;;;;;8.03;100.00;100473.09;5032587;28;20452;-78
2022/12/22 14:40:33;;;;;;;17.60;9.30;;;;;;;8.03;100.00;100471.22;5030666;28;20052;-77
2022/12/22 14:43:01;;;;;;;16.02;9.85;;;;;;;7.97;100.00;100460.78;5026993;28;20037;-77
2022/12/22 14:45:27;;;;;;;16.85;9.45;;;;;;;7.98;100.00;100475.22;5030687;28;20029;-77
2022/12/22 14:47:54;;;;;;;19.42;10.65;;;;;;;7.97;100.00;100463.50;5033839;28;20052;-76
2022/12/22 14:50:22;;;;;;;19.70;10.07;;;;;;;7.93;100.00;100452.03;5028469;28;20421;-76
2022/12/22 14:52:59;;;;;;;19.73;10.02;;;;;;;7.92;100.00;100444.84;5039979;28;20544;-77
2022/12/22 14:55:27;;;;;;;19.75;10.48;;;;;;;7.92;100.00;100455.69;5031416;28;20033;-77
2022/12/22 14:57:57;;;;;;;16.67;9.60;;;;;;;7.90;100.00;100463.06;5034014;28;20032;-77
2022/12/22 15:00:23;;;;;;;21.52;9.85;;;;;;;7.91;100.00;100461.22;5029805;28;20120;-76
2022/12/22 15:02:54;;;;;;;20.65;9.52;;;;;;;7.88;100.00;100448.78;5026605;28;20104;-77
2022/12/22 15:05:31;;;;;;;16.77;10.25;;;;;;;7.85;100.00;100453.53;5033909;28;20111;-76